createdAt,value
2018-08-18T00:01:56.210Z,8.60
2018-08-18T00:04:30.841Z,8.47
2018-08-18T00:07:01.788Z,8.48
2018-08-18T00:09:32.094Z,8.83
2018-08-18T00:12:02.157Z,8.53
2018-08-18T00:14:32.404Z,9.70
2018-08-18T00:17:02.214Z,8.33
2018-08-18T00:19:32.132Z,8.20
2018-08-18T00:22:01.961Z,8.33
2018-08-18T00:24:32.246Z,8.73
2018-08-18T00:27:02.121Z,8.20
2018-08-18T00:29:32.031Z,8.50
2018-08-18T00:32:01.918Z,8.47
2018-08-18T00:34:32.147Z,8.47
2018-08-18T00:37:02.249Z,9.10
2018-08-18T00:39:32.117Z,8.50
2018-08-18T00:42:02.654Z,8.53
2018-08-18T00:44:32.591Z,8.33
2018-08-18T00:47:02.444Z,8.10
2018-08-18T00:49:32.461Z,7.53
2018-08-18T00:52:02.288Z,8.00
2018-08-18T00:54:32.842Z,7.77
2018-08-18T00:57:08.896Z,7.27
2018-08-18T00:59:43.048Z,7.90
2018-08-18T01:02:13.171Z,7.17
2018-08-18T01:04:47.902Z,7.37
2018-08-18T01:07:18.064Z,7.37
2018-08-18T01:09:48.176Z,7.20
2018-08-18T01:12:18.333Z,6.80
2018-08-18T01:14:48.440Z,7.40
2018-08-18T01:17:18.508Z,6.77
2018-08-18T01:19:48.420Z,6.47
2018-08-18T01:22:18.270Z,6.60
2018-08-18T01:24:48.310Z,6.23
2018-08-18T01:27:18.118Z,6.00
2018-08-18T01:30:07.466Z,5.93
2018-08-18T01:32:37.621Z,6.13
2018-08-18T01:35:07.658Z,5.90
2018-08-18T01:37:37.554Z,6.20
2018-08-18T01:40:07.657Z,6.20
2018-08-18T01:42:37.524Z,6.67
2018-08-18T01:45:07.564Z,6.23
2018-08-18T01:47:37.458Z,6.30
2018-08-18T01:50:12.156Z,6.10
2018-08-18T01:52:42.084Z,6.43
2018-08-18T01:55:12.242Z,6.50
2018-08-18T01:57:42.121Z,6.10
2018-08-18T02:00:29.061Z,5.83
2018-08-18T02:02:59.173Z,6.50
2018-08-18T02:05:29.129Z,5.97
2018-08-18T02:07:59.101Z,6.27
2018-08-18T02:10:29.345Z,6.07
2018-08-18T02:13:12.654Z,6.00
2018-08-18T02:15:56.342Z,7.00
2018-08-18T02:18:26.205Z,6.10
2018-08-18T02:20:56.180Z,7.43
2018-08-18T02:23:26.126Z,7.40
2018-08-18T02:25:56.062Z,7.70
2018-08-18T02:28:30.412Z,7.77
2018-08-18T02:31:00.506Z,8.07
2018-08-18T02:33:30.581Z,8.13
2018-08-18T02:36:00.374Z,7.57
2018-08-18T02:38:30.347Z,7.83
2018-08-18T02:41:00.421Z,7.73
2018-08-18T02:43:30.417Z,7.60
2018-08-18T02:46:09.922Z,7.63
2018-08-18T02:48:40.097Z,7.80
2018-08-18T02:51:10.409Z,7.30
2018-08-18T02:53:40.399Z,8.00
2018-08-18T02:56:10.949Z,7.93
2018-08-18T02:58:43.204Z,8.30
2018-08-18T03:01:13.620Z,7.37
2018-08-18T03:03:43.660Z,7.10
2018-08-18T03:06:13.851Z,6.90
2018-08-18T03:08:44.137Z,6.75
2018-08-18T03:11:14.150Z,6.20
2018-08-18T03:13:43.985Z,6.10
2018-08-18T03:16:14.392Z,5.43
2018-08-18T03:18:47.571Z,5.90
2018-08-18T03:21:17.828Z,5.20
2018-08-18T03:23:58.808Z,5.25
2018-08-18T03:26:33.760Z,5.70
2018-08-18T03:29:04.304Z,5.43
2018-08-18T03:31:34.331Z,5.60
2018-08-18T03:34:04.450Z,5.87
2018-08-18T03:36:36.977Z,5.30
2018-08-18T03:39:09.995Z,5.27
2018-08-18T03:41:40.196Z,5.07
2018-08-18T03:44:10.092Z,5.23
2018-08-18T03:46:40.063Z,5.33
2018-08-18T03:49:10.085Z,5.37
2018-08-18T03:51:44.506Z,5.33
2018-08-18T03:54:14.827Z,5.20
2018-08-18T03:56:45.499Z,5.00
2018-08-18T03:59:15.548Z,5.27
2018-08-18T04:01:54.636Z,5.17
2018-08-18T04:04:25.990Z,5.27
2018-08-18T04:06:57.243Z,5.07
2018-08-18T04:09:30.325Z,5.27
2018-08-18T04:12:01.701Z,4.97
2018-08-18T04:14:49.618Z,5.47
2018-08-18T04:17:30.258Z,5.10
2018-08-18T04:20:00.638Z,4.70
2018-08-18T04:22:30.522Z,5.27
2018-08-18T04:25:00.492Z,5.43
2018-08-18T04:27:41.080Z,5.27
2018-08-18T04:30:13.520Z,5.37
2018-08-18T04:33:14.419Z,5.77
2018-08-18T04:35:48.617Z,5.70
2018-08-18T04:38:18.834Z,5.50
2018-08-18T04:40:49.047Z,5.40
2018-08-18T04:43:18.934Z,5.78
2018-08-18T04:45:49.045Z,5.87
2018-08-18T04:48:29.892Z,5.90
2018-08-18T04:51:00.294Z,5.33
2018-08-18T04:53:30.098Z,6.00
2018-08-18T04:56:00.104Z,6.07
2018-08-18T04:58:30.054Z,5.37
2018-08-18T05:00:59.911Z,5.43
2018-08-18T05:03:30.209Z,5.30
2018-08-18T05:06:00.066Z,5.43
2018-08-18T05:08:30.320Z,5.62
2018-08-18T05:11:00.170Z,5.67
2018-08-18T05:13:29.946Z,6.13
2018-08-18T05:16:00.174Z,5.78
2018-08-18T05:18:30.588Z,5.87
2018-08-18T05:21:00.652Z,5.47
2018-08-18T05:23:30.809Z,5.70
2018-08-18T05:26:00.869Z,5.53
2018-08-18T05:28:31.290Z,5.77
2018-08-18T05:31:01.129Z,5.97
2018-08-18T05:33:31.098Z,5.67
2018-08-18T05:36:01.694Z,5.27
2018-08-18T05:38:31.993Z,5.27
2018-08-18T05:41:02.516Z,5.57
2018-08-18T05:43:32.350Z,5.43
2018-08-18T05:46:04.878Z,5.85
2018-08-18T05:48:35.218Z,5.67
2018-08-18T05:51:05.376Z,5.50
2018-08-18T05:53:38.484Z,5.80
2018-08-18T05:56:08.803Z,5.70
2018-08-18T05:58:51.741Z,5.37
2018-08-18T06:01:32.510Z,5.50
2018-08-18T06:04:07.676Z,5.70
2018-08-18T06:06:37.833Z,5.40
2018-08-18T06:09:10.784Z,5.10
2018-08-18T06:11:40.863Z,5.30
2018-08-18T06:14:12.489Z,5.47
2018-08-18T06:16:43.630Z,5.80
2018-08-18T06:19:13.919Z,5.53
2018-08-18T06:21:44.491Z,5.83
2018-08-18T06:24:14.528Z,5.33
2018-08-18T06:26:44.743Z,4.90
2018-08-18T06:29:15.058Z,5.63
2018-08-18T06:31:57.681Z,4.83
2018-08-18T06:34:29.721Z,5.23
2018-08-18T06:37:00.444Z,5.63
2018-08-18T06:39:41.119Z,5.83
2018-08-18T06:42:20.662Z,6.10
2018-08-18T06:44:50.703Z,5.00
2018-08-18T06:47:20.677Z,5.40
2018-08-18T06:49:50.711Z,4.90
2018-08-18T06:52:21.349Z,4.77
2018-08-18T06:54:52.653Z,4.70
2018-08-18T06:57:33.533Z,4.83
2018-08-18T07:00:09.649Z,5.23
2018-08-18T07:02:39.967Z,4.50
2018-08-18T07:05:13.182Z,4.90
2018-08-18T07:07:44.325Z,4.70
2018-08-18T07:10:25.596Z,5.00
2018-08-18T07:12:57.044Z,4.30
2018-08-18T07:15:29.492Z,5.03
2018-08-18T07:17:59.977Z,4.33
2018-08-18T07:20:30.992Z,4.70
2018-08-18T07:23:01.269Z,4.73
2018-08-18T07:25:31.181Z,4.63
2018-08-18T07:28:06.411Z,4.53
2018-08-18T07:30:36.393Z,4.60
2018-08-18T07:33:07.022Z,4.90
2018-08-18T07:35:37.182Z,4.17
2018-08-18T07:38:07.188Z,4.30
2018-08-18T07:40:53.528Z,4.50
2018-08-18T07:43:26.691Z,4.47
2018-08-18T07:45:58.298Z,4.50
2018-08-18T07:48:28.226Z,4.27
2018-08-18T07:50:58.381Z,4.20
2018-08-18T07:53:28.398Z,4.53
2018-08-18T07:55:58.519Z,4.87
2018-08-18T07:58:28.535Z,4.73
2018-08-18T08:01:00.037Z,4.60
2018-08-18T08:03:30.306Z,4.43
2018-08-18T08:06:00.228Z,4.70
2018-08-18T08:08:36.665Z,4.30
2018-08-18T08:11:11.638Z,4.30
2018-08-18T08:13:41.701Z,4.20
2018-08-18T08:16:11.662Z,4.83
2018-08-18T08:18:41.691Z,4.30
2018-08-18T08:21:12.290Z,3.83
2018-08-18T08:23:42.258Z,4.10
2018-08-18T08:26:12.426Z,4.00
2018-08-18T08:28:46.495Z,4.60
2018-08-18T08:31:16.617Z,4.07
2018-08-18T08:33:46.680Z,4.10
2018-08-18T08:36:17.808Z,4.53
2018-08-18T08:39:06.569Z,4.10
2018-08-18T08:41:36.864Z,4.30
2018-08-18T08:44:07.081Z,4.10
2018-08-18T08:46:38.668Z,4.37
2018-08-18T08:49:08.809Z,4.27
2018-08-18T08:51:39.343Z,4.00
2018-08-18T08:54:09.317Z,4.37
2018-08-18T08:56:41.003Z,4.50
2018-08-18T08:59:11.272Z,4.07
2018-08-18T09:01:41.373Z,3.73
2018-08-18T09:04:11.755Z,4.33
2018-08-18T09:06:48.690Z,4.00
2018-08-18T09:09:18.546Z,3.50
2018-08-18T09:11:48.509Z,4.40
2018-08-18T09:14:18.445Z,3.80
2018-08-18T09:16:48.308Z,4.43
2018-08-18T09:19:20.280Z,4.10
2018-08-18T09:21:53.684Z,3.63
2018-08-18T09:24:25.865Z,3.87
2018-08-18T09:26:56.994Z,4.30
2018-08-18T09:29:28.378Z,3.83
2018-08-18T09:31:59.658Z,4.17
2018-08-18T09:34:32.872Z,3.80
2018-08-18T09:37:03.044Z,3.60
2018-08-18T09:39:35.418Z,3.60
2018-08-18T09:42:07.431Z,4.20
2018-08-18T09:44:40.602Z,3.80
2018-08-18T09:47:10.436Z,4.20
2018-08-18T09:49:40.349Z,3.83
2018-08-18T09:52:13.874Z,3.60
2018-08-18T09:54:43.700Z,3.77
2018-08-18T09:57:13.837Z,3.63
2018-08-18T09:59:43.882Z,3.60
2018-08-18T10:02:18.559Z,3.40
2018-08-18T10:04:48.337Z,4.00
2018-08-18T10:07:18.405Z,4.10
2018-08-18T10:09:48.248Z,3.67
2018-08-18T10:12:18.113Z,4.43
2018-08-18T10:14:48.164Z,4.37
2018-08-18T10:17:18.076Z,4.13
2018-08-18T10:19:48.258Z,3.70
2018-08-18T10:22:18.171Z,4.60
2018-08-18T10:24:48.218Z,4.20
2018-08-18T10:27:19.811Z,3.93
2018-08-18T10:29:50.064Z,4.43
2018-08-18T10:32:20.149Z,4.30
2018-08-18T10:34:50.190Z,4.13
2018-08-18T10:37:20.900Z,4.30
2018-08-18T10:39:56.499Z,3.85
2018-08-18T10:42:27.185Z,4.08
2018-08-18T10:45:01.032Z,4.07
2018-08-18T10:47:31.374Z,5.03
2018-08-18T10:50:11.843Z,4.53
2018-08-18T10:52:52.486Z,3.73
2018-08-18T10:55:22.373Z,4.20
2018-08-18T10:57:59.272Z,4.83
2018-08-18T11:00:30.536Z,4.20
2018-08-18T11:03:01.812Z,4.50
2018-08-18T11:05:32.426Z,4.30
2018-08-18T11:08:07.405Z,4.03
2018-08-18T11:10:39.940Z,4.40
2018-08-18T11:13:10.095Z,4.70
2018-08-18T11:15:40.216Z,4.10
2018-08-18T11:18:10.276Z,5.03
2018-08-18T11:20:40.155Z,4.57
2018-08-18T11:23:12.390Z,4.83
2018-08-18T11:25:50.968Z,5.07
2018-08-18T11:28:21.668Z,5.80
2018-08-18T11:30:53.609Z,4.27
2018-08-18T11:33:37.373Z,4.53
2018-08-18T11:36:10.014Z,4.50
2018-08-18T11:38:40.095Z,4.60
2018-08-18T11:41:09.943Z,4.00
2018-08-18T11:43:54.872Z,3.93
2018-08-18T11:46:24.945Z,4.10
2018-08-18T11:48:55.364Z,4.00
2018-08-18T11:51:28.978Z,4.20
2018-08-18T11:54:02.122Z,4.10
2018-08-18T11:56:33.599Z,4.20
2018-08-18T11:59:09.365Z,4.00
2018-08-18T12:01:40.838Z,4.20
2018-08-18T12:04:11.347Z,4.53
2018-08-18T12:07:02.464Z,4.27
2018-08-18T12:09:32.374Z,4.03
2018-08-18T12:12:02.284Z,4.40
2018-08-18T12:14:32.144Z,3.83
2018-08-18T12:17:02.053Z,4.63
2018-08-18T12:19:32.415Z,4.23
2018-08-18T12:22:02.320Z,3.93
2018-08-18T12:24:32.109Z,4.20
2018-08-18T12:27:10.954Z,4.73
2018-08-18T12:29:40.992Z,4.43
2018-08-18T12:32:16.124Z,4.37
2018-08-18T12:34:46.329Z,4.37
2018-08-18T12:37:16.556Z,4.40
2018-08-18T12:39:46.456Z,4.40
2018-08-18T12:42:21.121Z,4.00
2018-08-18T12:44:51.047Z,4.27
2018-08-18T12:47:20.997Z,4.10
2018-08-18T12:49:52.553Z,4.67
2018-08-18T12:52:22.589Z,4.03
2018-08-18T12:54:52.411Z,4.57
2018-08-18T12:57:32.697Z,4.10
2018-08-18T13:00:04.926Z,4.20
2018-08-18T13:02:43.172Z,4.32
2018-08-18T13:05:13.628Z,4.78
2018-08-18T13:07:44.118Z,4.63
2018-08-18T13:10:18.667Z,4.65
2018-08-18T13:12:49.464Z,5.10
2018-08-18T13:15:20.147Z,4.13
2018-08-18T13:17:50.107Z,4.80
2018-08-18T13:20:23.466Z,4.30
2018-08-18T13:22:53.319Z,4.30
2018-08-18T13:25:23.314Z,4.40
2018-08-18T13:27:54.017Z,3.87
2018-08-18T13:30:24.713Z,4.00
2018-08-18T13:32:58.268Z,4.50
2018-08-18T13:35:28.104Z,3.60
2018-08-18T13:37:58.526Z,4.07
2018-08-18T13:40:29.254Z,4.27
2018-08-18T13:42:59.222Z,4.60
2018-08-18T13:45:49.020Z,3.76
2018-08-18T13:48:18.842Z,3.70
2018-08-18T13:50:50.003Z,4.20
2018-08-18T13:53:20.161Z,4.00
2018-08-18T13:55:50.114Z,3.60
2018-08-18T13:58:20.587Z,4.03
2018-08-18T14:00:50.737Z,3.60
2018-08-18T14:03:27.807Z,3.60
2018-08-18T14:05:58.126Z,3.50
2018-08-18T14:08:28.025Z,3.70
2018-08-18T14:10:57.879Z,3.73
2018-08-18T14:13:28.558Z,3.80
2018-08-18T14:15:58.655Z,3.93
2018-08-18T14:18:28.619Z,3.63
2018-08-18T14:21:04.894Z,3.67
2018-08-18T14:23:35.075Z,3.33
2018-08-18T14:26:05.984Z,3.67
2018-08-18T14:28:36.216Z,3.07
2018-08-18T14:31:06.458Z,3.77
2018-08-18T14:33:36.841Z,3.60
2018-08-18T14:36:11.349Z,3.30
2018-08-18T14:38:42.305Z,3.33
2018-08-18T14:41:12.876Z,3.20
2018-08-18T14:43:43.652Z,3.43
2018-08-18T14:46:15.598Z,3.80
2018-08-18T14:48:45.854Z,3.33
2018-08-18T14:51:16.789Z,3.30
2018-08-18T14:53:47.169Z,2.90
2018-08-18T14:56:17.398Z,3.47
2018-08-18T14:58:47.623Z,3.73
2018-08-18T15:01:18.045Z,3.35
2018-08-18T15:03:48.187Z,3.50
2018-08-18T15:06:18.231Z,3.67
2018-08-18T15:08:48.278Z,3.57
2018-08-18T15:11:18.362Z,3.60
2018-08-18T15:13:48.471Z,3.60
2018-08-18T15:16:20.404Z,3.23
2018-08-18T15:18:50.454Z,3.53
2018-08-18T15:21:21.034Z,3.40
2018-08-18T15:23:51.840Z,3.50
2018-08-18T15:26:22.172Z,3.15
2018-08-18T15:28:52.604Z,3.57
2018-08-18T15:31:23.372Z,3.25
2018-08-18T15:33:53.869Z,3.50
2018-08-18T15:36:33.744Z,3.33
2018-08-18T15:39:04.233Z,3.45
2018-08-18T15:41:34.917Z,3.50
2018-08-18T15:44:08.766Z,3.10
2018-08-18T15:46:39.072Z,3.10
2018-08-18T15:49:09.208Z,3.43
2018-08-18T15:51:39.255Z,3.00
2018-08-18T15:54:09.375Z,3.10
2018-08-18T15:56:39.406Z,3.20
2018-08-18T15:59:09.427Z,3.40
2018-08-18T16:01:39.456Z,3.60
2018-08-18T16:04:09.553Z,3.13
2018-08-18T16:06:39.528Z,2.83
2018-08-18T16:09:10.292Z,3.70
2018-08-18T16:11:40.594Z,3.53
2018-08-18T16:14:10.604Z,3.23
2018-08-18T16:16:56.808Z,3.65
2018-08-18T16:19:27.499Z,2.80
2018-08-18T16:21:57.597Z,3.07
2018-08-18T16:24:32.649Z,3.40
2018-08-18T16:27:05.389Z,3.50
2018-08-18T16:29:35.824Z,3.40
2018-08-18T16:32:22.516Z,3.20
2018-08-18T16:35:00.254Z,3.00
2018-08-18T16:37:30.796Z,3.33
2018-08-18T16:40:01.144Z,2.98
2018-08-18T16:42:33.261Z,3.27
2018-08-18T16:45:03.346Z,3.30
2018-08-18T16:47:38.404Z,2.80
2018-08-18T16:50:08.469Z,3.10
2018-08-18T16:52:38.572Z,3.27
2018-08-18T16:55:08.586Z,3.37
2018-08-18T16:57:38.694Z,3.40
2018-08-18T17:00:09.198Z,3.77
2018-08-18T17:02:40.014Z,3.20
2018-08-18T17:05:10.886Z,3.33
2018-08-18T17:07:43.841Z,3.03
2018-08-18T17:10:14.234Z,3.00
2018-08-18T17:12:44.291Z,3.07
2018-08-18T17:15:14.499Z,3.17
2018-08-18T17:17:48.475Z,3.43
2018-08-18T17:20:18.536Z,3.07
2018-08-18T17:22:48.568Z,3.00
2018-08-18T17:25:18.553Z,3.00
2018-08-18T17:27:48.641Z,3.10
2018-08-18T17:30:18.928Z,3.00
2018-08-18T17:32:49.256Z,3.40
2018-08-18T17:35:19.505Z,3.57
2018-08-18T17:37:49.677Z,3.53
2018-08-18T17:40:20.036Z,3.10
2018-08-18T17:42:50.258Z,3.57
2018-08-18T17:45:20.705Z,3.40
2018-08-18T17:47:54.030Z,3.70
2018-08-18T17:50:24.346Z,4.33
2018-08-18T17:52:54.375Z,4.00
2018-08-18T17:55:25.057Z,4.50
2018-08-18T17:57:55.037Z,4.00
2018-08-18T18:00:25.214Z,3.90
2018-08-18T18:02:57.635Z,3.90
2018-08-18T18:05:30.444Z,4.17
2018-08-18T18:08:03.633Z,4.03
2018-08-18T18:10:35.188Z,6.97
2018-08-18T18:13:17.015Z,6.07
2018-08-18T18:15:48.585Z,6.53
2018-08-18T18:18:20.018Z,5.63
2018-08-18T18:20:51.777Z,5.57
2018-08-18T18:23:22.506Z,5.70
2018-08-18T18:25:52.691Z,5.17
2018-08-18T18:28:22.780Z,4.70
2018-08-18T18:30:54.173Z,4.75
2018-08-18T18:33:24.027Z,5.30
2018-08-18T18:35:54.020Z,5.77
2018-08-18T18:38:24.579Z,5.57
2018-08-18T18:40:54.538Z,6.07
2018-08-18T18:43:24.701Z,6.80
2018-08-18T18:45:54.835Z,6.33
2018-08-18T18:48:25.474Z,6.17
2018-08-18T18:50:59.148Z,6.03
2018-08-18T18:53:37.877Z,6.00
2018-08-18T18:56:08.861Z,5.67
2018-08-18T18:58:39.712Z,5.55
2018-08-18T19:01:09.826Z,6.07
2018-08-18T19:03:40.458Z,5.97
2018-08-18T19:06:10.550Z,6.10
2018-08-18T19:08:56.351Z,6.40
2018-08-18T19:11:27.338Z,5.77
2018-08-18T19:13:57.549Z,34.00
2018-08-18T19:16:27.592Z,17.93
2018-08-18T19:18:58.598Z,22.22
2018-08-18T19:21:32.692Z,17.90
2018-08-18T19:24:11.786Z,11.90
2018-08-18T19:26:52.487Z,15.63
2018-08-18T19:29:25.035Z,18.07
2018-08-18T19:31:57.846Z,19.77
2018-08-18T19:34:28.521Z,21.43
2018-08-18T19:37:05.397Z,22.00
2018-08-18T19:39:36.666Z,14.70
2018-08-18T19:42:12.465Z,8.83
2018-08-18T19:44:47.340Z,6.33
2018-08-18T19:47:23.844Z,5.60
2018-08-18T19:49:54.873Z,6.30
2018-08-18T19:52:26.060Z,6.53
2018-08-18T19:54:57.266Z,6.93
2018-08-18T19:57:32.072Z,6.30
2018-08-18T20:00:19.150Z,6.90
2018-08-18T20:03:00.061Z,8.48
2018-08-18T20:05:30.462Z,15.37
2018-08-18T20:08:00.417Z,19.83
2018-08-18T20:10:30.482Z,33.00
2018-08-18T20:13:00.659Z,28.25
2018-08-18T20:15:30.478Z,17.03
2018-08-18T20:18:00.498Z,12.57
2018-08-18T20:20:30.595Z,14.55
2018-08-18T20:23:01.757Z,11.53
2018-08-18T20:25:32.811Z,10.03
2018-08-18T20:28:03.592Z,9.23
2018-08-18T20:30:34.653Z,9.90
2018-08-18T20:33:05.773Z,8.83
2018-08-18T20:35:36.821Z,9.63
2018-08-18T20:38:08.032Z,9.45
2018-08-18T20:40:38.565Z,10.35
2018-08-18T20:43:09.792Z,12.60
2018-08-18T20:45:45.391Z,17.57
2018-08-18T20:48:17.843Z,26.50
2018-08-18T20:50:48.292Z,21.77
2018-08-18T20:53:18.672Z,17.00
2018-08-18T20:56:00.491Z,14.35
2018-08-18T20:58:32.893Z,14.45
2018-08-18T21:01:03.545Z,12.50
2018-08-18T21:03:46.967Z,11.57
2018-08-18T21:06:17.965Z,13.00
2018-08-18T21:08:48.425Z,13.13
2018-08-18T21:11:18.588Z,13.30
2018-08-18T21:13:50.086Z,12.90
2018-08-18T21:16:21.085Z,12.77
2018-08-18T21:18:51.119Z,12.33
2018-08-18T21:21:35.761Z,12.80
2018-08-18T21:24:06.048Z,12.05
2018-08-18T21:26:36.127Z,14.83
2018-08-18T21:29:06.317Z,14.90
2018-08-18T21:31:37.464Z,14.77
2018-08-18T21:34:08.433Z,13.20
2018-08-18T21:36:38.292Z,13.13
2018-08-18T21:39:10.264Z,11.60
2018-08-18T21:41:42.011Z,11.80
2018-08-18T21:44:13.491Z,14.00
2018-08-18T21:46:43.729Z,11.93
2018-08-18T21:49:14.379Z,11.55
2018-08-18T21:51:44.319Z,15.30
2018-08-18T21:54:14.369Z,18.60
2018-08-18T21:56:49.788Z,13.17
2018-08-18T21:59:20.317Z,11.30
2018-08-18T22:01:50.821Z,10.80
2018-08-18T22:04:21.518Z,16.87
2018-08-18T22:06:51.768Z,13.17
2018-08-18T22:09:29.535Z,12.87
2018-08-18T22:11:59.857Z,13.73
2018-08-18T22:14:32.861Z,13.77
2018-08-18T22:17:03.205Z,12.67
2018-08-18T22:19:33.319Z,13.03
2018-08-18T22:22:03.521Z,13.57
2018-08-18T22:24:33.371Z,12.30
2018-08-18T22:27:03.230Z,12.70
2018-08-18T22:29:33.076Z,13.33
2018-08-18T22:32:09.209Z,12.93
2018-08-18T22:34:39.389Z,12.23
2018-08-18T22:37:15.426Z,12.80
2018-08-18T22:39:45.472Z,13.20
2018-08-18T22:42:15.262Z,13.23
2018-08-18T22:44:45.054Z,12.77
2018-08-18T22:47:15.074Z,13.10
2018-08-18T22:49:44.990Z,12.43
2018-08-18T22:52:15.142Z,12.77
2018-08-18T22:54:45.186Z,12.63
2018-08-18T22:57:15.529Z,13.53
2018-08-18T22:59:45.567Z,15.63
2018-08-18T23:02:15.534Z,14.00
2018-08-18T23:04:45.674Z,13.53
2018-08-18T23:07:15.936Z,14.18
2018-08-18T23:09:46.137Z,14.80
2018-08-18T23:12:16.152Z,16.50
2018-08-18T23:14:46.265Z,17.17
2018-08-18T23:17:16.294Z,18.60
2018-08-18T23:19:46.291Z,17.17
2018-08-18T23:22:26.721Z,18.20
2018-08-18T23:24:57.021Z,18.62
2018-08-18T23:27:28.468Z,17.17
2018-08-18T23:30:00.402Z,19.27
2018-08-18T23:32:30.454Z,18.90
2018-08-18T23:35:00.399Z,19.37
2018-08-18T23:37:30.380Z,19.47
2018-08-18T23:40:00.440Z,19.50
2018-08-18T23:42:30.388Z,20.10
2018-08-18T23:45:00.568Z,19.77
2018-08-18T23:47:30.520Z,19.73
2018-08-18T23:50:00.521Z,19.93
2018-08-18T23:52:30.829Z,18.53
2018-08-18T23:55:01.137Z,19.07
2018-08-18T23:57:31.160Z,18.07
